Odder, Denmark
Current Conditions -  °F | °C
As of 7:50 AM on Tuesday 21 Oct 2014 (Local Time) from EKAH Reporting Station
Haze Haze  
Wind Chill: 48°   Ceiling: 5500
Heat Index: 48°   Visibility: 3mi
Dew Point: 46°   Wind: 1mph
Humidity: 93%   Direction: 160°SSE
Pressure: 29.62"   Gusts: NA
Location:  55.97°N, 10.15°E
Report Text: EKAH 210550Z AUTO 16001KT 5000NDV BR SCT002/// BKN055///09/08 Q1003
Loading
Personal Weather Stations






























Interactive Weather Map
Tropical Storm Tracking
New forecast layout! Learn more

10-Day Weather Forecast

Advertisements
Track Severe Weather on mobile